Time;durP1;ratioP1;P1;durP2;ratioP2;P2;SDS_P1;SDS_P2;PMS_P1;PMS_P2;Temp;Humidity;BMP_temperature;BMP_pressure;BME280_temperature;BME280_humidity;BME280_pressure;Samples;Min_cycle;Max_cycle;Signal;HPM_P1;HPM_P2
2023/05/17 00:01:10;;;;;;;2.20;1.50;;;11.30;46.90;;;;;;20540;6829;307846;-71
2023/05/17 00:03:38;;;;;;;2.23;1.50;;;11.40;46.30;;;;;;20769;6829;117317;-71
2023/05/17 00:06:03;;;;;;;5.23;1.53;;;11.30;46.50;;;;;;20773;6829;119645;-71
2023/05/17 00:08:28;;;;;;;2.00;1.27;;;11.10;47.00;;;;;;20778;6829;117148;-71
2023/05/17 00:10:54;;;;;;;1.37;1.17;;;10.90;47.50;;;;;;20774;6829;119720;-71
2023/05/17 00:13:20;;;;;;;2.87;1.50;;;10.80;48.00;;;;;;20543;6829;281645;-71
2023/05/17 00:15:46;;;;;;;1.75;1.30;;;11.00;46.90;;;;;;20767;6829;117599;-71
2023/05/17 00:18:11;;;;;;;3.30;1.43;;;10.90;46.10;;;;;;20561;6829;280313;-71
2023/05/17 00:20:38;;;;;;;2.40;1.42;;;11.50;45.50;;;;;;20558;6829;306594;-71
2023/05/17 00:23:03;;;;;;;3.00;1.30;;;11.40;45.30;;;;;;20758;6829;122733;-72
2023/05/17 00:25:30;;;;;;;3.67;1.57;;;11.10;47.50;;;;;;20779;6829;117354;-72
2023/05/17 00:27:56;;;;;;;4.13;1.93;;;11.00;46.70;;;;;;20561;6829;306992;-72
2023/05/17 00:30:22;;;;;;;2.50;1.83;;;11.20;46.10;;;;;;20559;6829;308033;-72
2023/05/17 00:32:48;;;;;;;2.17;1.40;;;11.70;44.00;;;;;;20553;6829;307044;-72
2023/05/17 00:35:14;;;;;;;1.57;1.47;;;11.60;43.90;;;;;;20539;6829;306552;-72
2023/05/17 00:37:39;;;;;;;2.73;1.50;;;11.80;43.70;;;;;;20768;6829;117767;-72
2023/05/17 00:40:05;;;;;;;3.70;1.63;;;11.60;44.70;;;;;;20564;6829;278012;-72
2023/05/17 00:42:31;;;;;;;1.67;1.30;;;11.60;44.20;;;;;;20775;6827;117038;-72
2023/05/17 00:44:57;;;;;;;2.17;1.50;;;11.40;45.30;;;;;;20554;6829;307397;-72
2023/05/17 00:47:23;;;;;;;1.93;1.43;;;11.40;45.30;;;;;;20634;6829;122934;-72
2023/05/17 00:49:48;;;;;;;4.50;1.60;;;11.30;45.80;;;;;;20561;6829;281428;-72
2023/05/17 00:52:14;;;;;;;3.20;1.73;;;11.40;46.50;;;;;;20765;6829;117557;-72
2023/05/17 00:54:39;;;;;;;2.00;1.50;;;11.30;46.90;;;;;;20555;6829;312314;-70
2023/05/17 00:57:05;;;;;;;4.63;2.10;;;11.30;45.30;;;;;;20753;6829;117238;-70
2023/05/17 00:59:31;;;;;;;1.73;1.57;;;11.30;45.40;;;;;;20555;6829;337181;-71
2023/05/17 01:01:57;;;;;;;2.40;1.23;;;11.30;45.40;;;;;;20765;6829;120758;-70
2023/05/17 01:04:23;;;;;;;2.20;1.73;;;10.90;46.80;;;;;;20773;6829;123580;-70
2023/05/17 01:06:49;;;;;;;6.27;3.47;;;10.90;46.70;;;;;;20778;6829;119682;-70
2023/05/17 01:09:15;;;;;;;10.90;7.80;;;10.50;48.00;;;;;;20754;6829;124031;-70
2023/05/17 01:12:00;;;;;;;10.23;9.13;;;10.50;48.00;;;;;;20552;6829;316430;-71
2023/05/17 01:14:48;;;;;;;5.70;5.07;;;10.70;47.00;;;;;;20764;6829;117266;-71
2023/05/17 01:17:24;;;;;;;2.50;2.30;;;10.60;47.40;;;;;;20521;6829;307452;-72
2023/05/17 01:19:50;;;;;;;3.00;1.80;;;10.70;47.70;;;;;;20750;6829;117228;-71
2023/05/17 01:22:35;;;;;;;2.30;1.40;;;10.60;47.50;;;;;;20753;6829;117247;-71
2023/05/17 01:25:30;;;;;;;3.33;1.37;;;10.40;48.20;;;;;;20737;6829;119362;-72
2023/05/17 01:27:57;;;;;;;5.77;1.60;;;10.00;49.40;;;;;;20768;6829;117232;-71
2023/05/17 01:30:22;;;;;;;2.77;1.57;;;9.90;50.30;;;;;;20764;6829;119329;-71
2023/05/17 01:32:48;;;;;;;2.97;1.90;;;9.80;50.80;;;;;;20547;6829;311111;-71
2023/05/17 01:35:13;;;;;;;3.67;1.98;;;10.10;49.00;;;;;;20541;6829;336081;-71
2023/05/17 01:37:40;;;;;;;3.73;1.50;;;10.50;48.00;;;;;;20769;6829;119974;-71
2023/05/17 01:40:07;;;;;;;2.97;1.80;;;10.60;47.90;;;;;;20552;6829;307324;-71
2023/05/17 01:42:32;;;;;;;2.93;1.80;;;10.60;47.20;;;;;;20493;6829;306614;-71
2023/05/17 01:44:57;;;;;;;3.57;2.00;;;10.90;46.90;;;;;;20745;6829;117193;-72
2023/05/17 01:47:36;;;;;;;2.65;1.52;;;10.80;47.50;;;;;;20498;6829;281174;-71
2023/05/17 01:50:02;;;;;;;3.17;1.70;;;10.80;46.40;;;;;;20502;6829;307531;-71
2023/05/17 01:52:31;;;;;;;1.93;1.57;;;11.00;45.80;;;;;;20741;6827;117577;-71
2023/05/17 01:55:22;;;;;;;2.12;1.80;;;10.80;46.40;;;;;;20513;6829;307503;-71
2023/05/17 01:57:48;;;;;;;3.47;1.50;;;10.80;46.40;;;;;;20748;6829;117001;-71
2023/05/17 02:00:13;;;;;;;3.53;1.92;;;10.50;47.20;;;;;;20514;6829;307353;-72
2023/05/17 02:02:39;;;;;;;3.07;2.00;;;10.60;47.40;;;;;;20552;6829;279489;-71
2023/05/17 02:05:05;;;;;;;4.10;1.97;;;10.80;46.80;;;;;;20755;6829;117595;-72
2023/05/17 02:07:30;;;;;;;2.80;1.80;;;10.60;47.20;;;;;;20769;6829;117275;-71
2023/05/17 02:09:56;;;;;;;2.80;2.07;;;10.20;48.00;;;;;;20780;6829;117166;-71
2023/05/17 02:12:24;;;;;;;2.83;2.00;;;9.90;49.60;;;;;;20780;6829;117231;-72
2023/05/17 02:14:48;;;;;;;4.03;2.03;;;9.70;50.30;;;;;;20553;6829;311601;-71
2023/05/17 02:17:13;;;;;;;2.70;2.00;;;9.80;49.60;;;;;;20750;6829;119742;-71
2023/05/17 02:19:39;;;;;;;2.83;2.10;;;9.80;49.80;;;;;;20771;6829;118137;-71
2023/05/17 02:22:05;;;;;;;3.07;1.67;;;9.60;50.40;;;;;;20772;6829;116999;-71
2023/05/17 02:24:30;;;;;;;3.10;2.10;;;9.40;50.80;;;;;;20560;6829;282246;-71
2023/05/17 02:26:56;;;;;;;3.47;2.17;;;9.60;50.20;;;;;;20565;6829;308252;-72
2023/05/17 02:29:21;;;;;;;2.37;2.00;;;9.90;49.20;;;;;;20545;6829;279266;-72
2023/05/17 02:31:47;;;;;;;3.85;2.15;;;10.20;47.70;;;;;;20776;6829;120112;-71
2023/05/17 02:34:13;;;;;;;3.33;2.67;;;10.00;47.30;;;;;;20559;6829;307930;-71
2023/05/17 02:36:39;;;;;;;3.12;2.30;;;10.10;47.80;;;;;;20564;6829;307126;-71
2023/05/17 02:39:04;;;;;;;3.30;2.40;;;10.20;47.40;;;;;;20538;6829;311181;-71
2023/05/17 02:41:30;;;;;;;4.70;2.10;;;10.40;47.10;;;;;;20779;6829;117330;-71
2023/05/17 02:43:56;;;;;;;6.50;2.93;;;9.70;49.50;;;;;;20773;6829;117160;-71
2023/05/17 02:46:22;;;;;;;4.85;3.42;;;9.70;49.50;;;;;;20561;6829;277430;-71
2023/05/17 02:48:47;;;;;;;4.90;3.30;;;9.70;49.30;;;;;;20562;6829;289698;-70
2023/05/17 02:51:13;;;;;;;6.13;3.30;;;10.00;48.40;;;;;;20542;6829;282402;-70
2023/05/17 02:53:38;;;;;;;5.97;3.08;;;10.20;47.90;;;;;;20560;6829;277910;-70
2023/05/17 02:56:04;;;;;;;2.93;2.23;;;10.30;47.50;;;;;;20771;6829;117255;-70
2023/05/17 02:58:30;;;;;;;4.67;2.20;;;10.10;48.10;;;;;;20563;6829;277470;-70
2023/05/17 03:00:55;;;;;;;2.10;1.77;;;10.10;48.10;;;;;;20562;6829;297874;-70
2023/05/17 03:03:21;;;;;;;2.13;1.90;;;10.30;47.70;;;;;;20760;6829;117334;-70
2023/05/17 03:05:46;;;;;;;3.33;1.67;;;10.10;48.30;;;;;;20782;6828;117016;-70
2023/05/17 03:08:13;;;;;;;1.60;1.50;;;9.70;50.80;;;;;;20771;6829;117451;-70
2023/05/17 03:10:38;;;;;;;3.27;2.10;;;9.50;50.90;;;;;;20562;6829;282006;-70
2023/05/17 03:13:04;;;;;;;2.43;2.10;;;9.60;50.20;;;;;;20534;6829;311812;-70
2023/05/17 03:15:30;;;;;;;2.33;2.00;;;10.00;48.90;;;;;;20556;6829;307912;-70
2023/05/17 03:17:55;;;;;;;3.87;2.20;;;10.30;48.30;;;;;;20770;6829;121484;-70
2023/05/17 03:20:21;;;;;;;3.73;1.93;;;9.80;50.50;;;;;;20771;6829;117461;-71
2023/05/17 03:22:47;;;;;;;3.07;1.90;;;9.70;50.40;;;;;;20770;6829;116999;-70
2023/05/17 03:25:13;;;;;;;2.57;2.20;;;9.50;51.20;;;;;;20540;6829;305731;-70
2023/05/17 03:27:38;;;;;;;2.53;1.90;;;9.60;50.70;;;;;;20768;6829;117512;-70
2023/05/17 03:30:04;;;;;;;2.93;1.87;;;9.60;50.90;;;;;;20770;6829;116776;-70
2023/05/17 03:32:29;;;;;;;2.60;1.80;;;9.40;51.50;;;;;;20553;6829;306957;-71
2023/05/17 03:34:55;;;;;;;2.63;2.00;;;9.50;51.30;;;;;;20565;6829;279794;-72
2023/05/17 03:37:20;;;;;;;2.00;1.80;;;9.90;50.30;;;;;;20538;6829;306488;-73
2023/05/17 03:39:46;;;;;;;2.40;1.90;;;10.20;48.60;;;;;;20555;6829;318126;-72
2023/05/17 03:42:12;;;;;;;2.70;2.10;;;10.60;48.30;;;;;;20555;6829;278449;-72
2023/05/17 03:44:38;;;;;;;2.50;2.07;;;10.60;48.30;;;;;;20763;6829;123475;-72
2023/05/17 03:47:05;;;;;;;3.20;2.00;;;10.40;48.80;;;;;;20534;6829;300673;-72
2023/05/17 03:49:30;;;;;;;2.27;1.87;;;10.10;49.10;;;;;;20767;6829;119988;-72
2023/05/17 03:51:55;;;;;;;2.73;2.20;;;10.10;48.70;;;;;;20556;6829;309264;-72
2023/05/17 03:54:22;;;;;;;2.03;1.60;;;10.00;49.00;;;;;;20771;6829;117115;-72
2023/05/17 03:56:49;;;;;;;4.13;1.70;;;10.00;49.00;;;;;;20761;6829;117128;-74
2023/05/17 03:59:13;;;;;;;3.50;3.20;;;9.80;50.70;;;;;;20518;6829;307090;-73
2023/05/17 04:01:38;;;;;;;3.03;1.67;;;9.80;50.70;;;;;;20766;6829;121493;-72
2023/05/17 04:04:06;;;;;;;2.10;1.90;;;9.80;50.90;;;;;;20763;6829;117370;-73
2023/05/17 04:06:32;;;;;;;1.98;1.70;;;9.60;51.40;;;;;;20539;6829;307924;-73
2023/05/17 04:08:58;;;;;;;2.95;1.90;;;10.00;49.60;;;;;;20528;6829;341901;-73
2023/05/17 04:11:26;;;;;;;3.60;2.00;;;10.00;49.20;;;;;;20554;6829;280926;-72
2023/05/17 04:13:52;;;;;;;2.33;2.10;;;10.30;48.30;;;;;;20548;6829;277894;-72
2023/05/17 04:16:19;;;;;;;2.60;2.25;;;10.70;48.80;;;;;;20559;6828;337347;-71
2023/05/17 04:18:45;;;;;;;2.30;1.80;;;10.70;48.80;;;;;;20766;6829;117339;-72
2023/05/17 04:21:10;;;;;;;3.23;1.93;;;10.50;49.30;;;;;;20531;6829;311722;-71
2023/05/17 04:23:36;;;;;;;2.27;1.43;;;10.50;48.50;;;;;;20768;6829;118036;-73
2023/05/17 04:26:03;;;;;;;2.77;2.17;;;10.40;48.70;;;;;;20550;6829;318503;-72
2023/05/17 04:28:28;;;;;;;3.13;1.80;;;10.30;48.60;;;;;;20772;6829;117850;-72
2023/05/17 04:30:53;;;;;;;2.93;1.90;;;10.20;49.10;;;;;;20779;6829;117434;-74
2023/05/17 04:33:19;;;;;;;3.73;1.87;;;10.00;49.90;;;;;;20760;6829;117256;-73
2023/05/17 04:35:44;;;;;;;2.60;1.90;;;9.70;51.40;;;;;;20773;6829;117579;-72
2023/05/17 04:38:11;;;;;;;4.25;1.65;;;9.60;51.90;;;;;;20772;6829;117293;-73
2023/05/17 04:40:36;;;;;;;2.40;1.80;;;9.40;52.80;;;;;;20759;6829;116958;-72
2023/05/17 04:43:02;;;;;;;2.20;1.70;;;9.30;52.70;;;;;;20743;6829;121447;-73
2023/05/17 04:45:27;;;;;;;2.30;2.10;;;9.30;53.10;;;;;;20556;6829;306420;-72
2023/05/17 04:47:53;;;;;;;2.33;2.17;;;9.60;52.40;;;;;;20771;6829;116998;-72
2023/05/17 04:50:20;;;;;;;2.20;2.00;;;9.70;52.50;;;;;;20745;6829;116827;-74
2023/05/17 04:52:46;;;;;;;2.57;1.93;;;9.70;53.60;;;;;;20768;6829;116889;-73
2023/05/17 04:55:12;;;;;;;3.97;2.37;;;9.60;53.40;;;;;;20537;6829;313686;-73
2023/05/17 04:57:37;;;;;;;2.50;2.17;;;10.00;51.50;;;;;;20772;6829;117229;-73
2023/05/17 05:00:06;;;;;;;2.93;2.27;;;10.10;51.40;;;;;;20778;6829;117208;-75
2023/05/17 05:02:31;;;;;;;2.23;1.90;;;10.00;51.80;;;;;;20551;6829;307888;-73
2023/05/17 05:04:57;;;;;;;2.80;2.50;;;10.30;50.60;;;;;;20547;6829;278381;-73
2023/05/17 05:07:23;;;;;;;3.97;1.90;;;10.80;49.20;;;;;;20762;6829;117205;-73
2023/05/17 05:09:48;;;;;;;2.58;2.20;;;10.90;49.60;;;;;;20544;6829;342911;-73
2023/05/17 05:12:14;;;;;;;2.70;2.20;;;11.00;47.90;;;;;;20556;6829;311518;-75
2023/05/17 05:14:39;;;;;;;2.83;2.30;;;11.40;47.10;;;;;;20543;6829;278346;-75
2023/05/17 05:17:05;;;;;;;3.25;2.28;;;11.70;46.80;;;;;;20521;6829;306576;-75
2023/05/17 05:19:31;;;;;;;3.30;1.60;;;11.90;46.60;;;;;;20767;6829;117928;-75
2023/05/17 05:21:56;;;;;;;4.17;2.07;;;11.80;47.30;;;;;;20556;6829;304657;-74
2023/05/17 05:24:23;;;;;;;2.77;2.40;;;11.80;46.00;;;;;;20766;6829;117745;-77
2023/05/17 05:26:49;;;;;;;3.03;2.20;;;11.70;46.50;;;;;;20553;6828;307864;-76
2023/05/17 05:29:15;;;;;;;2.87;1.90;;;11.70;46.50;;;;;;20540;6828;306941;-78
2023/05/17 05:31:41;;;;;;;4.30;1.90;;;12.00;47.90;;;;;;20550;6829;280000;-75
2023/05/17 05:34:07;;;;;;;2.12;1.65;;;12.20;47.80;;;;;;20808;6829;116632;-77
2023/05/17 05:36:33;;;;;;;3.15;1.75;;;12.00;48.40;;;;;;20558;6829;277166;-76
2023/05/17 05:38:59;;;;;;;3.00;2.07;;;12.00;48.30;;;;;;20544;6829;278397;-76
2023/05/17 05:41:24;;;;;;;2.75;1.92;;;12.20;47.90;;;;;;20563;6829;277478;-78
2023/05/17 05:43:50;;;;;;;3.50;1.80;;;12.40;47.70;;;;;;20762;6829;117381;-78
2023/05/17 05:46:15;;;;;;;4.40;1.63;;;12.20;48.20;;;;;;20772;6829;117931;-79
2023/05/17 05:48:42;;;;;;;2.20;2.00;;;11.90;49.10;;;;;;20768;6829;117229;-77
2023/05/17 05:51:07;;;;;;;3.22;2.12;;;11.60;49.60;;;;;;20540;6829;307530;-77
2023/05/17 05:53:32;;;;;;;3.20;2.00;;;11.70;49.10;;;;;;20552;6829;314020;-78
2023/05/17 05:55:58;;;;;;;2.78;1.95;;;12.10;49.10;;;;;;20550;6829;277539;-77
2023/05/17 05:58:23;;;;;;;2.45;2.10;;;12.40;48.30;;;;;;20561;6829;336523;-72
2023/05/17 06:00:49;;;;;;;2.27;1.73;;;12.70;48.30;;;;;;20770;6829;117528;-72
2023/05/17 06:03:14;;;;;;;2.17;1.95;;;12.60;48.80;;;;;;20535;6829;340167;-72
2023/05/17 06:05:40;;;;;;;3.78;1.87;;;12.70;48.10;;;;;;20559;6829;277517;-72
2023/05/17 06:08:06;;;;;;;2.80;2.05;;;13.00;48.10;;;;;;20554;6829;307069;-76
2023/05/17 06:10:31;;;;;;;2.62;2.00;;;13.30;47.60;;;;;;20556;6829;336050;-71
2023/05/17 06:12:57;;;;;;;2.50;2.30;;;13.60;47.60;;;;;;20554;6829;303837;-72
2023/05/17 06:15:23;;;;;;;3.93;2.20;;;13.80;46.80;;;;;;20772;6829;123098;-71
2023/05/17 06:17:48;;;;;;;5.20;2.00;;;13.80;46.80;;;;;;20770;6829;120992;-71
2023/05/17 06:20:15;;;;;;;3.30;2.20;;;13.80;43.90;;;;;;20557;6829;278049;-71
2023/05/17 06:22:43;;;;;;;5.57;2.50;;;13.80;43.90;;;;;;20765;6829;117122;-71
2023/05/17 06:25:12;;;;;;;4.00;2.27;;;13.90;45.40;;;;;;20540;6829;282607;-72
2023/05/17 06:27:35;;;;;;;3.77;2.10;;;14.40;43.10;;;;;;20528;6829;306729;-70
2023/05/17 06:30:00;;;;;;;3.43;2.30;;;15.10;42.30;;;;;;20554;6829;311928;-71
2023/05/17 06:32:27;;;;;;;2.87;2.13;;;15.90;40.50;;;;;;20767;6829;123033;-72
2023/05/17 06:34:52;;;;;;;2.00;1.80;;;16.20;42.40;;;;;;20759;6829;117119;-72
2023/05/17 06:37:18;;;;;;;2.50;2.20;;;16.30;43.90;;;;;;20544;6829;307003;-72
2023/05/17 06:39:44;;;;;;;3.13;2.10;;;16.80;40.50;;;;;;20514;6828;300818;-72
2023/05/17 06:42:09;;;;;;;3.57;2.33;;;17.60;37.80;;;;;;20775;6829;117027;-72
2023/05/17 06:44:35;;;;;;;3.80;2.20;;;17.90;39.80;;;;;;20771;6829;116909;-71
2023/05/17 06:47:01;;;;;;;5.70;2.30;;;18.00;41.70;;;;;;20762;6829;118715;-71
2023/05/17 06:49:27;;;;;;;5.70;2.37;;;18.00;41.60;;;;;;20771;6829;117325;-72
2023/05/17 06:51:54;;;;;;;2.80;2.60;;;18.20;42.10;;;;;;20767;6829;117113;-72
2023/05/17 06:54:19;;;;;;;3.90;2.40;;;18.20;42.10;;;;;;20768;6829;117068;-71
2023/05/17 06:56:44;;;;;;;5.07;3.45;;;18.20;42.00;;;;;;20560;6829;277529;-72
2023/05/17 06:59:10;;;;;;;7.93;2.50;;;18.50;36.60;;;;;;20749;6829;117204;-72
2023/05/17 07:01:36;;;;;;;5.20;4.75;;;18.50;40.20;;;;;;20772;6829;117195;-71
2023/05/17 07:04:01;;;;;;;4.27;3.83;;;18.40;39.40;;;;;;20771;6829;117921;-72
2023/05/17 07:06:27;;;;;;;7.27;6.03;;;18.40;40.90;;;;;;20767;6829;117547;-71
2023/05/17 07:08:53;;;;;;;4.63;3.00;;;18.40;41.30;;;;;;20561;6829;282136;-72
2023/05/17 07:11:18;;;;;;;3.53;2.50;;;18.50;35.80;;;;;;20544;6829;307025;-72
2023/05/17 07:13:44;;;;;;;5.23;2.70;;;18.70;35.70;;;;;;20567;6829;306388;-72
2023/05/17 07:16:09;;;;;;;4.10;3.00;;;18.90;36.00;;;;;;20556;6829;307694;-72
2023/05/17 07:18:35;;;;;;;4.63;2.50;;;19.00;35.00;;;;;;20561;6829;278494;-71
2023/05/17 07:21:01;;;;;;;2.80;2.20;;;18.90;36.30;;;;;;20752;6829;117213;-71
2023/05/17 07:23:28;;;;;;;3.10;2.60;;;18.90;36.30;;;;;;20559;6829;277892;-72
2023/05/17 07:25:54;;;;;;;3.85;3.00;;;18.80;35.80;;;;;;20554;6829;311486;-72
2023/05/17 07:28:19;;;;;;;3.00;2.65;;;18.90;34.60;;;;;;20564;6829;307280;-72
2023/05/17 07:30:45;;;;;;;3.33;2.50;;;19.00;34.50;;;;;;20773;6829;117549;-72
2023/05/17 07:33:10;;;;;;;4.53;3.00;;;18.60;36.00;;;;;;20544;6829;303363;-72
2023/05/17 07:35:36;;;;;;;3.37;2.77;;;18.50;35.80;;;;;;20774;6829;117287;-72
2023/05/17 07:38:02;;;;;;;3.05;2.75;;;18.40;37.80;;;;;;20568;6829;306507;-71
2023/05/17 07:40:28;;;;;;;3.90;2.57;;;18.50;36.20;;;;;;20777;6829;119777;-72
2023/05/17 07:42:53;;;;;;;2.95;2.67;;;18.30;37.40;;;;;;20558;6829;340869;-71
2023/05/17 07:45:18;;;;;;;7.07;3.00;;;18.20;35.30;;;;;;20536;6829;307592;-72
2023/05/17 07:47:45;;;;;;;5.23;3.00;;;18.00;37.40;;;;;;20773;6829;122911;-71
2023/05/17 07:50:10;;;;;;;3.47;2.87;;;18.00;37.40;;;;;;20554;6827;337229;-71
2023/05/17 07:52:36;;;;;;;3.12;2.83;;;17.90;36.40;;;;;;20550;6829;336600;-71
2023/05/17 07:55:02;;;;;;;5.10;2.87;;;17.90;35.80;;;;;;20755;6829;126852;-72
2023/05/17 07:57:27;;;;;;;5.25;2.90;;;17.80;37.50;;;;;;20770;6829;120287;-72
2023/05/17 07:59:52;;;;;;;4.23;2.90;;;17.70;39.10;;;;;;20771;6829;117142;-72
2023/05/17 08:02:18;;;;;;;5.93;2.70;;;17.70;39.70;;;;;;20770;6829;117538;-72
2023/05/17 08:04:44;;;;;;;6.80;3.10;;;17.60;40.00;;;;;;20769;6829;119598;-71
2023/05/17 08:07:09;;;;;;;3.70;3.20;;;17.50;40.30;;;;;;20533;6829;289680;-73
2023/05/17 08:09:35;;;;;;;3.67;2.93;;;17.70;38.10;;;;;;20766;6829;117443;-72
2023/05/17 08:12:02;;;;;;;4.20;3.00;;;17.70;38.80;;;;;;20558;6829;307330;-80
2023/05/17 08:14:27;;;;;;;5.60;3.10;;;17.80;38.60;;;;;;20554;6829;311091;-72
2023/05/17 08:16:53;;;;;;;5.63;3.10;;;18.10;37.20;;;;;;20561;6829;278914;-72
2023/05/17 08:19:19;;;;;;;3.90;3.37;;;18.50;34.90;;;;;;20540;6829;313499;-72
2023/05/17 08:21:45;;;;;;;4.17;3.03;;;18.50;35.40;;;;;;20765;6829;117253;-73
2023/05/17 08:24:10;;;;;;;4.95;3.10;;;18.20;36.10;;;;;;20567;6829;277491;-72
2023/05/17 08:26:36;;;;;;;3.83;3.23;;;17.90;35.10;;;;;;20771;6829;117106;-75
2023/05/17 08:29:02;;;;;;;5.93;3.50;;;17.70;36.90;;;;;;20540;6829;336544;-75
2023/05/17 08:31:27;;;;;;;3.53;2.77;;;17.60;37.10;;;;;;20770;6829;121112;-74
2023/05/17 08:33:53;;;;;;;4.00;3.00;;;17.20;39.20;;;;;;20766;6829;117114;-77
2023/05/17 08:36:19;;;;;;;4.03;3.33;;;17.20;38.50;;;;;;20560;6829;311611;-74
2023/05/17 08:38:45;;;;;;;3.90;3.47;;;17.30;37.10;;;;;;20552;6829;307450;-75
2023/05/17 08:41:10;;;;;;;6.85;2.90;;;17.50;36.60;;;;;;20749;6829;117696;-74
2023/05/17 08:43:36;;;;;;;4.47;3.73;;;17.40;37.50;;;;;;20547;6829;306960;-72
2023/05/17 08:46:03;;;;;;;5.40;3.67;;;17.30;36.30;;;;;;20550;6829;340854;-74
2023/05/17 08:48:29;;;;;;;4.00;3.70;;;17.60;36.50;;;;;;20556;6829;277562;-72
2023/05/17 08:50:53;;;;;;;8.00;3.75;;;17.80;36.10;;;;;;20537;6829;336856;-72
2023/05/17 08:53:18;;;;;;;4.83;3.60;;;18.00;36.30;;;;;;20748;6829;117592;-73
2023/05/17 08:55:44;;;;;;;4.13;3.70;;;17.90;37.50;;;;;;20558;6829;283357;-72
2023/05/17 08:58:09;;;;;;;4.57;4.03;;;18.00;36.10;;;;;;20528;6829;289599;-73
2023/05/17 09:00:35;;;;;;;12.23;10.40;;;18.30;36.90;;;;;;20536;6829;284465;-75
2023/05/17 09:03:00;;;;;;;4.03;3.53;;;18.70;36.00;;;;;;20727;6828;120570;-73
2023/05/17 09:05:26;;;;;;;5.90;3.80;;;18.70;36.70;;;;;;20554;6829;277417;-73
2023/05/17 09:07:52;;;;;;;3.87;3.55;;;18.70;34.30;;;;;;20556;6829;307126;-73
2023/05/17 09:10:18;;;;;;;4.37;3.47;;;18.70;35.40;;;;;;20563;6829;301262;-73
2023/05/17 09:12:43;;;;;;;3.87;3.57;;;18.70;35.40;;;;;;20766;6829;117192;-75
2023/05/17 09:15:15;;;;;;;4.33;3.30;;;18.60;37.10;;;;;;20735;6829;123872;-73
2023/05/17 09:17:41;;;;;;;5.80;3.63;;;18.30;37.90;;;;;;20536;6829;286319;-73
2023/05/17 09:20:07;;;;;;;6.67;4.07;;;18.30;37.40;;;;;;20555;6829;279278;-75
2023/05/17 09:22:32;;;;;;;4.33;3.77;;;18.50;35.70;;;;;;20554;6829;277908;-74
2023/05/17 09:25:01;;;;;;;4.77;4.10;;;18.60;35.60;;;;;;20563;6829;276996;-76
2023/05/17 09:27:23;;;;;;;4.67;4.03;;;18.70;36.10;;;;;;20406;6829;307336;-74
2023/05/17 09:29:48;;;;;;;4.40;4.00;;;18.80;36.70;;;;;;20553;6829;306934;-73
2023/05/17 09:32:14;;;;;;;4.73;3.80;;;19.00;35.90;;;;;;20768;6829;117528;-73
2023/05/17 09:34:40;;;;;;;5.00;4.10;;;19.10;35.20;;;;;;20552;6829;282053;-75
2023/05/17 09:37:16;;;;;;;4.33;3.70;;;19.10;35.20;;;;;;20746;6829;132684;-73
2023/05/17 09:39:43;;;;;;;4.40;3.80;;;19.00;36.30;;;;;;20770;6829;117839;-73
2023/05/17 09:42:08;;;;;;;4.17;3.73;;;18.70;36.80;;;;;;20771;6829;117566;-73
2023/05/17 09:44:33;;;;;;;4.03;3.22;;;18.30;37.00;;;;;;20767;6829;117093;-73
2023/05/17 09:46:58;;;;;;;4.83;4.00;;;17.90;37.30;;;;;;20493;6829;306574;-73
2023/05/17 09:49:24;;;;;;;4.13;3.60;;;17.90;34.70;;;;;;20770;6829;117838;-72
2023/05/17 09:51:50;;;;;;;4.20;3.90;;;17.90;35.30;;;;;;20549;6829;277444;-73
2023/05/17 09:54:19;;;;;;;4.20;3.30;;;17.90;35.30;;;;;;20812;6829;117175;-76
2023/05/17 09:56:41;;;;;;;4.53;3.23;;;17.90;36.70;;;;;;20751;6829;117169;-75
2023/05/17 09:59:10;;;;;;;5.70;3.50;;;17.70;37.80;;;;;;20756;6829;127081;-73
2023/05/17 10:01:35;;;;;;;4.03;3.63;;;17.70;38.10;;;;;;20533;6829;278227;-75
2023/05/17 10:04:01;;;;;;;4.10;3.70;;;17.80;35.80;;;;;;20556;6829;282032;-73
2023/05/17 10:06:27;;;;;;;5.47;3.43;;;18.10;35.60;;;;;;20772;6829;117569;-76
2023/05/17 10:08:53;;;;;;;4.03;3.62;;;18.30;35.00;;;;;;20553;6829;316299;-76
2023/05/17 10:11:19;;;;;;;5.00;3.03;;;18.30;35.00;;;;;;20742;6829;117635;-77
2023/05/17 10:13:51;;;;;;;5.12;3.22;;;18.30;36.20;;;;;;20756;6828;117720;-76
2023/05/17 10:16:17;;;;;;;3.87;3.57;;;18.30;38.30;;;;;;20702;6829;117020;-78
2023/05/17 10:18:42;;;;;;;4.00;3.50;;;18.30;38.30;;;;;;20769;6829;117592;-75
2023/05/17 10:21:09;;;;;;;5.67;4.07;;;18.40;39.00;;;;;;20745;6829;142065;-75
2023/05/17 10:23:33;;;;;;;4.13;3.20;;;18.50;39.20;;;;;;20769;6829;117136;-78
2023/05/17 10:25:59;;;;;;;4.20;3.80;;;18.40;38.90;;;;;;20553;6829;307134;-79
2023/05/17 10:28:25;;;;;;;3.83;3.53;;;18.70;36.50;;;;;;20551;6829;303185;-76
2023/05/17 10:30:50;;;;;;;4.17;3.77;;;19.20;37.00;;;;;;20552;6829;279640;-80
2023/05/17 10:33:16;;;;;;;3.37;3.10;;;19.50;35.50;;;;;;20740;6829;117272;-76
2023/05/17 10:35:41;;;;;;;4.33;4.03;;;19.60;36.60;;;;;;20553;6829;307840;-82
2023/05/17 10:38:07;;;;;;;3.50;3.20;;;19.70;34.30;;;;;;20755;6829;117946;-79
2023/05/17 10:40:32;;;;;;;4.70;4.30;;;19.50;35.60;;;;;;20570;6829;277007;-78
2023/05/17 10:42:59;;;;;;;5.60;3.63;;;19.20;37.00;;;;;;20755;6829;123224;-76
2023/05/17 10:45:45;;;;;;;4.30;4.00;;;19.10;36.90;;;;;;20569;6829;277358;-77
2023/05/17 10:48:21;;;;;;;5.30;4.20;;;19.20;34.80;;;;;;20694;6742;293005;-76
2023/05/17 10:50:56;;;;;;;4.10;3.80;;;19.30;35.80;;;;;;20863;6742;116654;-79
2023/05/17 10:53:32;;;;;;;3.47;3.17;;;19.40;37.00;;;;;;20944;6739;117536;-82
2023/05/17 10:56:08;;;;;;;3.57;3.23;;;19.30;37.40;;;;;;20875;6754;116982;-75
2023/05/17 10:58:44;;;;;;;4.30;3.87;;;19.50;34.90;;;;;;20652;6742;277185;-78
2023/05/17 11:01:41;;;;;;;5.03;3.97;;;19.50;34.90;;;;;;20461;6783;280818;-79
2023/05/17 11:04:33;;;;;;;4.53;4.10;;;20.10;34.30;;;;;;20531;6788;315748;-79
2023/05/17 11:07:16;;;;;;;4.40;3.60;;;20.10;34.20;;;;;;20657;6745;305039;-78
2023/05/17 11:09:53;;;;;;;5.47;3.70;;;20.30;33.00;;;;;;20612;6760;335710;-79
2023/05/17 11:12:37;;;;;;;4.00;3.53;;;20.30;32.20;;;;;;20431;6767;312257;-76
2023/05/17 11:15:13;;;;;;;7.80;4.00;;;20.50;30.40;;;;;;20589;6763;277041;-79
2023/05/17 11:17:49;;;;;;;3.85;3.55;;;20.40;30.30;;;;;;20648;6749;335795;-77
2023/05/17 11:20:24;;;;;;;4.00;3.63;;;20.50;32.70;;;;;;20583;6760;307257;-80
2023/05/17 11:23:00;;;;;;;5.03;3.97;;;20.70;31.20;;;;;;20667;6734;305529;-76
2023/05/17 11:25:35;;;;;;;4.30;3.83;;;20.80;32.60;;;;;;20657;6762;276238;-78
2023/05/17 11:28:18;;;;;;;3.87;3.10;;;21.00;31.60;;;;;;20901;6753;116912;-76
2023/05/17 11:30:54;;;;;;;6.53;3.40;;;20.40;33.30;;;;;;20827;6753;116982;-76
2023/05/17 11:33:43;;;;;;;3.80;3.50;;;20.30;33.30;;;;;;20654;6753;276787;-75
2023/05/17 11:36:19;;;;;;;4.20;3.30;;;20.20;32.40;;;;;;20883;6753;117098;-78
2023/05/17 11:39:11;;;;;;;4.00;3.27;;;20.00;33.60;;;;;;20877;6753;117018;-79
2023/05/17 11:41:46;;;;;;;4.37;3.10;;;19.70;34.60;;;;;;20754;6753;117672;-78
2023/05/17 11:44:31;;;;;;;5.57;5.03;;;19.40;34.80;;;;;;20878;6753;116835;-74
2023/05/17 11:47:10;;;;;;;3.83;3.20;;;19.00;34.70;;;;;;20856;6753;117109;-76
2023/05/17 11:49:50;;;;;;;4.47;3.17;;;18.70;34.90;;;;;;20885;6753;117767;-80
2023/05/17 11:52:22;;;;;;;4.18;3.87;;;18.50;35.00;;;;;;20498;6753;308465;-76
2023/05/17 11:54:58;;;;;;;4.43;4.00;;;18.90;34.90;;;;;;20671;6753;276659;-75
2023/05/17 11:57:35;;;;;;;3.70;3.43;;;18.90;34.90;;;;;;20881;6753;117409;-78
2023/05/17 12:00:10;;;;;;;4.10;3.70;;;19.00;35.60;;;;;;20876;6753;117087;-78
2023/05/17 12:02:46;;;;;;;4.70;4.10;;;19.00;36.00;;;;;;20670;6753;306157;-78
2023/05/17 12:05:21;;;;;;;4.30;3.90;;;19.20;34.30;;;;;;20655;6753;294660;-76
2023/05/17 12:07:57;;;;;;;4.85;4.37;;;19.60;34.60;;;;;;20673;6753;306165;-76
2023/05/17 12:10:32;;;;;;;4.77;3.80;;;20.00;32.40;;;;;;20847;6753;120628;-80
2023/05/17 12:13:08;;;;;;;4.37;3.97;;;20.00;34.00;;;;;;20865;6753;116879;-80
2023/05/17 12:15:44;;;;;;;4.07;3.73;;;19.80;34.70;;;;;;20856;6753;120307;-76
2023/05/17 12:18:19;;;;;;;4.68;4.20;;;19.70;35.30;;;;;;20665;6753;306129;-77
2023/05/17 12:20:55;;;;;;;4.53;3.77;;;19.90;31.90;;;;;;20818;6753;116924;-76
2023/05/17 12:23:30;;;;;;;4.40;4.00;;;19.90;33.40;;;;;;20656;6753;304874;-78
2023/05/17 12:26:06;;;;;;;4.97;4.57;;;20.00;31.40;;;;;;20885;6753;116859;-76
2023/05/17 12:28:41;;;;;;;20.03;17.97;;;19.90;33.10;;;;;;20884;6753;116820;-76
2023/05/17 12:31:17;;;;;;;4.97;4.28;;;19.70;34.50;;;;;;20551;6753;430137;-79
2023/05/17 12:33:53;;;;;;;5.23;3.97;;;19.80;32.90;;;;;;20848;6753;117772;-76
2023/05/17 12:36:30;;;;;;;5.30;4.80;;;19.70;34.20;;;;;;20637;6753;314461;-75
2023/05/17 12:39:08;;;;;;;4.43;4.03;;;19.80;35.10;;;;;;20649;6753;276340;-77
2023/05/17 12:41:41;;;;;;;4.70;4.20;;;20.20;33.30;;;;;;20557;6753;346564;-75